createdAt,value
2022-09-01T00:00:29.391Z,9.88
2022-09-01T00:03:05.181Z,7.72
2022-09-01T00:05:34.877Z,26.27
2022-09-01T00:08:08.085Z,33.85
2022-09-01T00:10:40.215Z,24.70
2022-09-01T00:15:41.712Z,19.50
2022-09-01T00:18:10.322Z,12.77
2022-09-01T00:20:44.009Z,7.25
2022-09-01T00:23:12.068Z,19.13
2022-09-01T00:25:44.071Z,28.05
2022-09-01T00:28:13.465Z,30.83
2022-09-01T00:30:42.396Z,35.63
2022-09-01T00:33:18.402Z,56.83
2022-09-01T00:35:51.393Z,119.03
2022-09-01T00:38:21.206Z,118.07
2022-09-01T00:40:50.357Z,82.60
2022-09-01T00:43:44.797Z,57.50
2022-09-01T00:46:18.307Z,91.43
2022-09-01T00:48:53.989Z,64.53
2022-09-01T00:51:23.587Z,50.80
2022-09-01T00:53:57.490Z,45.38
2022-09-01T00:56:29.342Z,28.65
2022-09-01T00:58:58.972Z,24.08
2022-09-01T01:01:36.611Z,15.55
2022-09-01T01:04:07.297Z,6.68
2022-09-01T01:06:38.193Z,28.30
2022-09-01T01:09:06.577Z,31.73
2022-09-01T01:11:36.231Z,12.40
2022-09-01T01:14:12.615Z,13.02
2022-09-01T01:16:46.898Z,224.07
2022-09-01T01:20:01.769Z,235.95
2022-09-01T01:23:09.403Z,110.18
2022-09-01T01:25:50.276Z,62.08
2022-09-01T01:28:31.778Z,55.50
2022-09-01T01:31:13.311Z,21.92
2022-09-01T01:33:44.891Z,14.65
2022-09-01T01:36:29.446Z,11.68
2022-09-01T01:39:04.161Z,13.23
2022-09-01T01:41:35.788Z,17.60
2022-09-01T01:44:05.942Z,16.85
2022-09-01T01:46:46.299Z,10.73
2022-09-01T01:49:22.696Z,22.52
2022-09-01T01:51:56.508Z,66.97
2022-09-01T01:54:32.919Z,13.10
2022-09-01T01:57:04.747Z,20.95
2022-09-01T01:59:34.000Z,71.90
2022-09-01T02:02:08.964Z,63.08
2022-09-01T02:04:40.483Z,43.03
2022-09-01T02:07:15.176Z,40.60
2022-09-01T02:09:48.599Z,11.45
2022-09-01T02:12:19.965Z,29.08
2022-09-01T02:14:55.151Z,21.80
2022-09-01T02:17:23.734Z,8.73
2022-09-01T02:19:59.414Z,6.57
2022-09-01T02:22:31.672Z,8.38
2022-09-01T02:25:01.395Z,23.95
2022-09-01T02:27:29.784Z,302.35
2022-09-01T02:29:59.237Z,65.15
2022-09-01T02:32:27.781Z,149.20
2022-09-01T02:34:57.431Z,79.80
2022-09-01T02:37:25.683Z,53.13
2022-09-01T02:39:57.990Z,45.38
2022-09-01T02:42:28.080Z,14.18
2022-09-01T02:44:58.985Z,22.63
2022-09-01T02:47:29.884Z,18.02
2022-09-01T02:50:02.221Z,55.13
2022-09-01T02:52:35.945Z,59.80
2022-09-01T02:55:09.705Z,155.18
2022-09-01T02:57:47.441Z,318.30
2022-09-01T03:00:33.979Z,96.28
2022-09-01T03:03:03.336Z,16.20
2022-09-01T03:05:36.698Z,26.48
2022-09-01T03:08:11.065Z,22.10
2022-09-01T03:10:44.179Z,36.67
2022-09-01T03:13:17.166Z,21.92
2022-09-01T03:15:46.057Z,23.15
2022-09-01T03:18:19.002Z,29.27
2022-09-01T03:20:52.212Z,26.52
2022-09-01T03:23:21.541Z,72.57
2022-09-01T03:25:53.501Z,143.63
2022-09-01T03:28:24.183Z,118.32
2022-09-01T03:30:59.930Z,75.15
2022-09-01T03:33:30.949Z,81.40
2022-09-01T03:36:14.841Z,61.10
2022-09-01T03:38:51.936Z,30.10
2022-09-01T03:41:28.344Z,28.17
2022-09-01T03:44:00.748Z,31.58
2022-09-01T03:46:37.109Z,23.75
2022-09-01T03:49:08.327Z,38.05
2022-09-01T03:51:39.562Z,21.17
2022-09-01T03:54:11.557Z,20.45
2022-09-01T03:56:46.464Z,12.77
2022-09-01T03:59:19.895Z,11.55
2022-09-01T04:01:52.355Z,17.02
2022-09-01T04:04:22.432Z,12.55
2022-09-01T04:06:51.119Z,11.00
2022-09-01T04:09:23.361Z,12.75
2022-09-01T04:11:58.406Z,16.67
2022-09-01T04:14:33.401Z,16.20
2022-09-01T04:17:34.652Z,60.33
2022-09-01T04:20:09.862Z,11.57
2022-09-01T04:22:54.986Z,9.13
2022-09-01T04:25:28.896Z,6.63
2022-09-01T04:28:00.280Z,6.35
2022-09-01T04:30:32.320Z,8.27
2022-09-01T04:33:08.543Z,5.63
2022-09-01T04:35:43.031Z,8.07
2022-09-01T04:38:22.920Z,8.43
2022-09-01T04:41:01.198Z,8.15
2022-09-01T04:43:33.538Z,14.07
2022-09-01T04:46:03.829Z,13.18
2022-09-01T04:48:34.550Z,15.18
2022-09-01T04:51:13.857Z,16.88
2022-09-01T04:53:57.891Z,16.40
2022-09-01T04:56:31.033Z,14.38
2022-09-01T04:59:21.784Z,11.65
2022-09-01T05:02:15.297Z,8.57
2022-09-01T05:04:56.409Z,6.20
2022-09-01T05:07:31.877Z,7.72
2022-09-01T05:10:17.668Z,4.05
2022-09-01T05:13:10.858Z,9.68
2022-09-01T05:15:48.704Z,6.15
2022-09-01T05:18:27.256Z,6.40
2022-09-01T05:20:59.169Z,4.82
2022-09-01T05:23:33.249Z,3.25
2022-09-01T05:26:15.873Z,3.97
2022-09-01T05:28:59.825Z,1.92
2022-09-01T05:31:47.227Z,2.83
2022-09-01T05:34:27.551Z,4.68
2022-09-01T05:37:03.365Z,2.33
2022-09-01T05:39:33.386Z,2.25
2022-09-01T05:42:10.852Z,2.38
2022-09-01T05:44:46.357Z,4.05
2022-09-01T05:47:23.536Z,2.33
2022-09-01T05:49:57.696Z,5.50
2022-09-01T05:52:30.156Z,5.13
2022-09-01T05:55:11.512Z,5.18
2022-09-01T05:57:56.268Z,7.10
2022-09-01T06:00:39.567Z,2.28
2022-09-01T06:03:12.122Z,2.70
2022-09-01T06:05:49.179Z,2.22
2022-09-01T06:08:28.176Z,1.92
2022-09-01T06:11:04.871Z,3.42
2022-09-01T06:13:34.972Z,2.78
2022-09-01T06:16:13.737Z,3.90
2022-09-01T06:18:53.077Z,4.40
2022-09-01T06:21:41.399Z,7.05
2022-09-01T06:24:20.599Z,4.22
2022-09-01T06:26:52.235Z,5.00
2022-09-01T06:29:35.892Z,5.82
2022-09-01T06:32:28.397Z,5.03
2022-09-01T06:35:01.121Z,5.45
2022-09-01T06:37:36.870Z,4.75
2022-09-01T06:40:21.479Z,6.97
2022-09-01T06:42:58.236Z,2.95
2022-09-01T06:45:41.393Z,3.08
2022-09-01T06:48:17.025Z,10.85
2022-09-01T06:53:57.248Z,1.85
2022-09-01T06:56:42.839Z,3.50
2022-09-01T06:59:27.622Z,4.35
2022-09-01T07:02:17.760Z,3.40
2022-09-01T07:12:25.444Z,3.65
2022-09-01T07:18:09.976Z,4.45
2022-09-01T07:24:10.422Z,8.30
2022-09-01T07:26:47.520Z,5.05
2022-09-01T07:29:24.233Z,7.38
2022-09-01T07:34:52.959Z,10.82
2022-09-01T07:44:13.743Z,4.63
2022-09-01T07:47:52.516Z,3.50
2022-09-01T07:53:20.742Z,7.30
2022-09-01T07:56:04.918Z,3.15
2022-09-01T07:58:39.731Z,2.20
2022-09-01T08:01:33.637Z,4.35
2022-09-01T08:04:07.976Z,1.40
2022-09-01T08:06:44.024Z,3.25
2022-09-01T08:09:37.824Z,4.70
2022-09-01T08:12:28.911Z,2.80
2022-09-01T08:16:06.390Z,1.52
2022-09-01T08:18:47.986Z,6.13
2022-09-01T08:21:32.130Z,1.73
2022-09-01T08:24:08.585Z,3.03
2022-09-01T08:26:44.798Z,3.78
2022-09-01T08:29:23.336Z,4.30
2022-09-01T08:31:53.885Z,3.95
2022-09-01T08:34:24.597Z,6.40
2022-09-01T08:36:53.815Z,3.33
2022-09-01T08:39:29.219Z,1.67
2022-09-01T08:42:17.227Z,1.98
2022-09-01T08:45:20.199Z,2.25
2022-09-01T08:49:24.251Z,1.42
2022-09-01T08:51:52.452Z,1.23
2022-09-01T08:54:58.692Z,1.13
2022-09-01T08:58:04.444Z,3.13
2022-09-01T09:01:15.733Z,2.00
2022-09-01T09:04:42.782Z,0.85
2022-09-01T09:08:06.510Z,2.15
2022-09-01T09:11:23.563Z,2.58
2022-09-01T09:14:23.965Z,2.85
2022-09-01T09:17:04.781Z,2.25
2022-09-01T09:19:42.468Z,2.42
2022-09-01T09:22:21.198Z,2.58
2022-09-01T09:25:21.610Z,1.70
2022-09-01T09:28:01.529Z,3.63
2022-09-01T09:30:39.086Z,1.48
2022-09-01T09:35:58.789Z,4.25
2022-09-01T09:38:38.989Z,4.25
2022-09-01T09:41:27.373Z,4.13
2022-09-01T09:44:29.718Z,2.67
2022-09-01T09:58:31.518Z,6.72
2022-09-01T10:01:36.590Z,2.97
2022-09-01T10:07:16.999Z,2.97
2022-09-01T10:10:00.930Z,2.40
2022-09-01T10:12:48.980Z,1.27
2022-09-01T10:15:54.605Z,0.95
2022-09-01T10:19:12.664Z,3.25
2022-09-01T10:21:50.627Z,3.72
2022-09-01T10:24:31.169Z,1.52
2022-09-01T10:27:19.164Z,2.83
2022-09-01T10:30:20.700Z,4.88
2022-09-01T10:33:11.205Z,1.42
2022-09-01T10:35:56.216Z,1.88
2022-09-01T10:38:30.696Z,1.85
2022-09-01T10:41:15.737Z,0.70
2022-09-01T10:44:11.417Z,2.67
2022-09-01T10:47:06.439Z,2.75
2022-09-01T10:49:48.327Z,1.27
2022-09-01T10:52:56.671Z,1.15
2022-09-01T10:55:59.051Z,2.05
2022-09-01T11:02:28.020Z,2.92
2022-09-01T11:05:21.809Z,1.90
2022-09-01T11:08:22.777Z,2.22
2022-09-01T11:11:32.358Z,1.13
2022-09-01T11:14:24.915Z,3.08
2022-09-01T11:17:46.788Z,3.10
2022-09-01T11:20:47.246Z,2.42
2022-09-01T11:23:35.445Z,3.05
2022-09-01T11:26:46.679Z,5.18
2022-09-01T11:30:31.693Z,1.40
2022-09-01T11:33:18.222Z,2.38
2022-09-01T11:39:47.613Z,1.35
2022-09-01T11:42:50.034Z,0.85
2022-09-01T11:45:34.052Z,1.92
2022-09-01T11:48:25.485Z,2.00
2022-09-01T11:51:08.568Z,2.28
2022-09-01T11:54:09.657Z,1.08
2022-09-01T11:56:44.141Z,3.13
2022-09-01T11:59:23.418Z,1.48
2022-09-01T12:02:09.487Z,1.33
2022-09-01T12:04:47.437Z,0.68
2022-09-01T12:11:32.082Z,0.73
2022-09-01T12:14:21.769Z,2.20
2022-09-01T12:17:04.236Z,0.30
2022-09-01T12:19:40.270Z,0.68
2022-09-01T12:25:34.566Z,2.30
2022-09-01T12:28:20.471Z,2.05
2022-09-01T12:31:30.431Z,2.20
2022-09-01T12:34:29.806Z,2.30
2022-09-01T12:37:34.324Z,0.52
2022-09-01T12:43:11.900Z,4.93
2022-09-01T12:46:12.421Z,5.88
2022-09-01T12:48:52.482Z,1.13
2022-09-01T12:51:37.085Z,4.20
2022-09-01T12:54:21.305Z,3.22
2022-09-01T12:56:56.095Z,1.85
2022-09-01T12:59:37.812Z,1.67
2022-09-01T13:03:25.234Z,3.42
2022-09-01T13:06:25.927Z,2.42
2022-09-01T13:09:12.397Z,1.58
2022-09-01T13:12:06.986Z,2.45
2022-09-01T13:14:59.613Z,4.72
2022-09-01T13:17:51.385Z,9.80
2022-09-01T13:20:53.399Z,1.58
2022-09-01T13:23:36.613Z,0.50
2022-09-01T13:26:12.383Z,3.22
2022-09-01T13:28:57.399Z,4.55
2022-09-01T13:31:32.505Z,5.15
2022-09-01T13:34:23.362Z,3.88
2022-09-01T13:36:58.625Z,3.58
2022-09-01T13:39:38.208Z,3.67
2022-09-01T13:42:16.271Z,3.35
2022-09-01T13:45:13.806Z,2.58
2022-09-01T13:53:59.822Z,2.08
2022-09-01T13:56:59.633Z,3.65
2022-09-01T13:59:31.962Z,6.57
2022-09-01T14:02:06.980Z,5.93
2022-09-01T14:04:52.552Z,2.53
2022-09-01T14:07:28.710Z,2.58
2022-09-01T14:10:13.931Z,2.72
2022-09-01T14:12:51.280Z,4.15
2022-09-01T14:15:39.401Z,8.55
2022-09-01T14:18:14.676Z,8.20
2022-09-01T14:21:02.691Z,3.67
2022-09-01T14:23:38.247Z,2.53
2022-09-01T14:26:28.175Z,5.30
2022-09-01T14:29:10.978Z,2.67
2022-09-01T14:32:01.915Z,3.38
2022-09-01T14:35:13.253Z,3.33
2022-09-01T14:38:00.305Z,3.33
2022-09-01T14:40:35.959Z,1.98
2022-09-01T14:43:17.010Z,6.85
2022-09-01T14:46:16.549Z,5.10
2022-09-01T14:49:26.704Z,3.00
2022-09-01T14:52:14.683Z,8.18
2022-09-01T14:54:59.621Z,2.60
2022-09-01T14:57:51.357Z,1.60
2022-09-01T15:00:23.267Z,2.03
2022-09-01T15:03:02.651Z,1.60
2022-09-01T15:05:43.615Z,4.13
2022-09-01T15:08:26.968Z,3.53
2022-09-01T15:11:05.237Z,3.28
2022-09-01T15:13:58.493Z,2.75
2022-09-01T15:16:46.246Z,9.68
2022-09-01T15:19:30.029Z,31.50
2022-09-01T15:22:17.754Z,76.60
2022-09-01T15:25:17.470Z,36.13
2022-09-01T15:27:58.377Z,8.93
2022-09-01T15:30:32.050Z,10.60
2022-09-01T15:33:17.046Z,25.23
2022-09-01T15:35:55.812Z,21.08
2022-09-01T15:38:30.620Z,9.43
2022-09-01T15:41:08.962Z,5.05
2022-09-01T15:43:54.964Z,3.92
2022-09-01T15:46:36.295Z,12.63
2022-09-01T15:49:22.651Z,14.98
2022-09-01T15:52:18.079Z,8.75
2022-09-01T15:54:53.139Z,5.63
2022-09-01T15:57:30.850Z,3.88
2022-09-01T16:00:08.597Z,8.07
2022-09-01T16:03:11.930Z,5.25
2022-09-01T16:05:50.208Z,3.20
2022-09-01T16:08:36.683Z,16.55
2022-09-01T16:11:24.170Z,18.95
2022-09-01T16:14:04.689Z,22.08
2022-09-01T16:17:03.935Z,36.38
2022-09-01T16:20:05.482Z,60.00
2022-09-01T16:23:15.128Z,8.68
2022-09-01T16:25:59.092Z,8.93
2022-09-01T16:28:38.962Z,4.45
2022-09-01T16:31:26.133Z,2.80
2022-09-01T16:34:02.961Z,3.83
2022-09-01T16:40:37.616Z,7.38
2022-09-01T16:44:10.794Z,3.67
2022-09-01T16:47:09.491Z,8.63
2022-09-01T16:50:09.717Z,6.70
2022-09-01T16:53:20.106Z,42.65
2022-09-01T16:56:06.770Z,14.80
2022-09-01T17:02:31.344Z,21.93
2022-09-01T17:06:21.211Z,23.95
2022-09-01T17:09:26.874Z,90.80
2022-09-01T17:12:37.814Z,59.80
2022-09-01T17:15:45.144Z,25.15
2022-09-01T17:19:27.409Z,37.72
2022-09-01T17:22:15.955Z,25.23
2022-09-01T17:32:02.919Z,29.77
2022-09-01T17:35:03.497Z,19.25
2022-09-01T17:38:30.580Z,15.50
2022-09-01T17:41:45.402Z,19.45
2022-09-01T17:49:08.136Z,15.73
2022-09-01T17:52:31.951Z,16.75
2022-09-01T17:55:50.325Z,21.70
2022-09-01T17:59:09.769Z,10.27
2022-09-01T18:02:30.960Z,11.38
2022-09-01T18:08:21.602Z,13.15
2022-09-01T18:11:41.610Z,12.02
2022-09-01T18:15:00.834Z,23.33
2022-09-01T18:18:07.574Z,56.17
2022-09-01T18:20:54.171Z,28.88
2022-09-01T18:23:47.414Z,27.92
2022-09-01T18:29:47.802Z,151.60
2022-09-01T18:33:07.048Z,58.42
2022-09-01T18:36:18.146Z,98.50
2022-09-01T18:42:18.824Z,36.40
2022-09-01T18:46:05.743Z,24.10
2022-09-01T18:49:28.945Z,22.90
2022-09-01T18:53:26.760Z,12.98
2022-09-01T18:56:58.278Z,15.65
2022-09-01T19:03:25.461Z,21.33
2022-09-01T19:07:09.300Z,8.68
2022-09-01T19:09:58.496Z,9.27
2022-09-01T19:13:13.532Z,4.50
2022-09-01T19:15:58.920Z,9.80
2022-09-01T19:18:56.747Z,10.32
2022-09-01T19:21:38.119Z,9.82
2022-09-01T19:24:13.254Z,9.45
2022-09-01T19:26:47.849Z,13.63
2022-09-01T19:29:23.692Z,17.50
2022-09-01T19:31:57.631Z,28.15
2022-09-01T19:34:45.010Z,26.63
2022-09-01T19:37:13.081Z,11.00
2022-09-01T19:39:44.692Z,7.32
2022-09-01T19:42:34.317Z,15.23
2022-09-01T19:45:07.522Z,9.90
2022-09-01T19:47:49.840Z,12.20
2022-09-01T19:50:38.708Z,12.50
2022-09-01T19:53:15.879Z,11.15
2022-09-01T19:55:54.969Z,54.85
2022-09-01T19:58:47.782Z,38.95
2022-09-01T20:01:21.299Z,50.92
2022-09-01T20:03:58.469Z,37.80
2022-09-01T20:06:34.853Z,56.38
2022-09-01T20:09:10.500Z,20.50
2022-09-01T20:11:39.753Z,14.90
2022-09-01T20:14:33.913Z,5.50
2022-09-01T20:17:12.986Z,14.65
2022-09-01T20:20:07.791Z,18.02
2022-09-01T20:22:49.226Z,17.40
2022-09-01T20:25:20.673Z,15.48
2022-09-01T20:27:51.605Z,16.30
2022-09-01T20:30:31.255Z,20.85
2022-09-01T20:33:04.042Z,13.70
2022-09-01T20:36:18.024Z,19.25
2022-09-01T20:39:11.260Z,29.02
2022-09-01T20:42:02.417Z,30.63
2022-09-01T20:44:41.913Z,26.08
2022-09-01T20:47:09.701Z,23.30
2022-09-01T20:49:38.818Z,27.35
2022-09-01T20:52:06.057Z,58.65
2022-09-01T20:54:44.816Z,68.72
2022-09-01T20:57:12.111Z,69.82
2022-09-01T20:59:54.924Z,111.43
2022-09-01T21:02:27.986Z,87.63
2022-09-01T21:04:57.957Z,16.63
2022-09-01T21:07:31.816Z,15.40
2022-09-01T21:10:13.574Z,10.43
2022-09-01T21:12:52.047Z,9.48
2022-09-01T21:15:27.712Z,20.55
2022-09-01T21:18:44.639Z,11.40
2022-09-01T21:21:28.427Z,3.38
2022-09-01T21:23:55.755Z,5.43
2022-09-01T21:26:23.442Z,4.68
2022-09-01T21:28:55.181Z,9.27
2022-09-01T21:31:24.332Z,8.90
2022-09-01T21:33:52.292Z,11.05
2022-09-01T21:36:19.482Z,11.13
2022-09-01T21:38:46.682Z,7.95
2022-09-01T21:41:14.170Z,5.38
2022-09-01T21:43:45.214Z,6.25
2022-09-01T21:46:14.667Z,3.65
2022-09-01T21:48:41.863Z,4.70
2022-09-01T21:51:08.876Z,4.22
2022-09-01T21:53:36.261Z,6.28
2022-09-01T21:56:03.442Z,3.95
2022-09-01T21:58:30.430Z,6.60
2022-09-01T22:00:58.514Z,7.15
2022-09-01T22:03:25.662Z,9.60
2022-09-01T22:05:52.959Z,10.05
2022-09-01T22:08:20.287Z,4.47
2022-09-01T22:10:49.745Z,9.98
2022-09-01T22:13:18.287Z,7.05
2022-09-01T22:15:49.072Z,17.58
2022-09-01T22:18:19.038Z,45.45
2022-09-01T22:20:47.849Z,30.35
2022-09-01T22:23:17.110Z,5.90
2022-09-01T22:25:46.862Z,6.28
2022-09-01T22:28:14.624Z,5.88
2022-09-01T22:30:49.348Z,5.72
2022-09-01T22:35:46.635Z,4.72
2022-09-01T22:38:14.877Z,13.98
2022-09-01T22:41:02.640Z,12.80
2022-09-01T22:43:30.418Z,33.30
2022-09-01T22:45:58.427Z,39.67
2022-09-01T22:48:27.219Z,33.30
2022-09-01T22:50:54.394Z,23.33
2022-09-01T22:53:22.901Z,52.53
2022-09-01T22:55:51.515Z,10.32
2022-09-01T22:58:19.514Z,37.30
2022-09-01T23:00:50.461Z,42.45
2022-09-01T23:03:19.555Z,56.83
2022-09-01T23:05:48.151Z,12.73
2022-09-01T23:08:17.014Z,24.05
2022-09-01T23:10:44.315Z,39.33
2022-09-01T23:13:11.337Z,23.98
2022-09-01T23:15:38.681Z,11.43
2022-09-01T23:18:05.722Z,20.95
2022-09-01T23:20:33.012Z,27.35
2022-09-01T23:23:00.353Z,26.42
2022-09-01T23:25:27.980Z,19.65
2022-09-01T23:27:55.427Z,26.42
2022-09-01T23:30:22.771Z,15.68
2022-09-01T23:32:49.898Z,9.75
2022-09-01T23:35:17.889Z,15.75
2022-09-01T23:37:45.070Z,26.20
2022-09-01T23:40:12.264Z,34.85
2022-09-01T23:42:41.391Z,22.48
2022-09-01T23:45:09.226Z,183.57
2022-09-01T23:47:36.347Z,157.50
2022-09-01T23:50:04.748Z,136.52
2022-09-01T23:52:32.803Z,21.08
2022-09-01T23:54:59.850Z,146.07
2022-09-01T23:57:27.176Z,225.93
2022-09-01T23:59:57.922Z,223.68
